createdAt,value
2017-11-10T00:00:28.499Z,86.99
2017-11-10T00:01:34.407Z,86.91
2017-11-10T00:02:40.313Z,86.87
2017-11-10T00:03:46.286Z,86.78
2017-11-10T00:04:52.714Z,86.73
2017-11-10T00:05:58.807Z,86.34
2017-11-10T00:07:04.910Z,86.52
2017-11-10T00:08:10.992Z,86.58
2017-11-10T00:09:17.024Z,86.55
2017-11-10T00:10:25.159Z,86.46
2017-11-10T00:11:31.091Z,86.31
2017-11-10T00:12:37.216Z,86.39
2017-11-10T00:13:43.316Z,86.51
2017-11-10T00:14:49.452Z,86.85
2017-11-10T00:15:55.559Z,86.62
2017-11-10T00:17:01.626Z,86.36
2017-11-10T00:18:09.421Z,86.33
2017-11-10T00:19:15.531Z,86.32
2017-11-10T00:20:21.704Z,86.42
2017-11-10T00:21:27.825Z,86.30
2017-11-10T00:22:33.932Z,86.27
2017-11-10T00:23:44.689Z,86.53
2017-11-10T00:24:50.788Z,86.50
2017-11-10T00:25:56.914Z,86.47
2017-11-10T00:27:02.988Z,86.44
2017-11-10T00:28:09.083Z,86.42
2017-11-10T00:29:15.167Z,86.76
2017-11-10T00:30:22.285Z,86.67
2017-11-10T00:31:28.411Z,86.55
2017-11-10T00:32:34.545Z,86.40
2017-11-10T00:33:40.661Z,86.78
2017-11-10T00:34:46.782Z,86.85
2017-11-10T00:35:52.888Z,86.88
2017-11-10T00:36:59.023Z,86.83
2017-11-10T00:38:05.386Z,86.75
2017-11-10T00:39:12.120Z,86.75
2017-11-10T00:40:18.257Z,86.33
2017-11-10T00:41:24.386Z,85.99
2017-11-10T00:42:30.480Z,86.24
2017-11-10T00:43:36.582Z,86.09
2017-11-10T00:44:42.762Z,86.21
2017-11-10T00:45:48.961Z,86.43
2017-11-10T00:46:55.038Z,86.30
2017-11-10T00:48:01.131Z,86.09
2017-11-10T00:49:07.225Z,86.22
2017-11-10T00:50:13.143Z,86.33
2017-11-10T00:51:19.223Z,86.26
2017-11-10T00:52:25.852Z,86.26
2017-11-10T00:53:31.935Z,86.06
2017-11-10T00:54:38.013Z,86.30
2017-11-10T00:55:45.112Z,86.47
2017-11-10T00:56:51.203Z,86.37
2017-11-10T00:57:57.330Z,86.11
2017-11-10T00:59:03.412Z,86.04
2017-11-10T01:00:09.509Z,86.07
2017-11-10T01:01:15.969Z,85.91
2017-11-10T01:02:23.692Z,85.65
2017-11-10T01:03:32.099Z,85.35
2017-11-10T01:04:39.245Z,85.52
2017-11-10T01:05:46.611Z,85.50
2017-11-10T01:06:53.854Z,85.54
2017-11-10T01:08:02.146Z,85.41
2017-11-10T01:09:08.723Z,85.67
2017-11-10T01:10:16.967Z,85.84
2017-11-10T01:11:24.642Z,85.98
2017-11-10T01:12:32.620Z,86.11
2017-11-10T01:13:40.109Z,85.70
2017-11-10T01:14:47.956Z,85.34
2017-11-10T01:15:55.196Z,85.78
2017-11-10T01:17:03.045Z,85.66
2017-11-10T01:18:10.014Z,85.74
2017-11-10T01:19:17.441Z,86.10
2017-11-10T01:20:24.462Z,85.97
2017-11-10T01:21:31.646Z,85.73
2017-11-10T01:22:38.336Z,85.44
2017-11-10T01:23:44.370Z,85.49
2017-11-10T01:24:50.243Z,85.63
2017-11-10T01:25:56.634Z,85.74
2017-11-10T01:27:02.734Z,86.01
2017-11-10T01:28:08.833Z,86.06
2017-11-10T01:29:14.717Z,86.04
2017-11-10T01:30:20.813Z,85.80
2017-11-10T01:31:28.908Z,85.73
2017-11-10T01:32:35.037Z,86.17
2017-11-10T01:33:41.121Z,86.19
2017-11-10T01:34:47.210Z,85.90
2017-11-10T01:35:53.284Z,85.80
2017-11-10T01:36:59.374Z,85.81
2017-11-10T01:38:05.487Z,85.90
2017-11-10T01:39:11.400Z,86.08
2017-11-10T01:40:17.516Z,85.54
2017-11-10T01:41:23.683Z,85.76
2017-11-10T01:42:29.086Z,85.85
2017-11-10T01:43:36.089Z,85.95
2017-11-10T01:44:42.242Z,85.68
2017-11-10T01:45:49.266Z,85.73
2017-11-10T01:46:55.434Z,85.85
2017-11-10T01:48:07.440Z,86.00
2017-11-10T01:49:13.553Z,86.10
2017-11-10T01:50:19.690Z,85.67
2017-11-10T01:51:26.714Z,85.56
2017-11-10T01:52:32.804Z,85.43
2017-11-10T01:53:38.957Z,85.47
2017-11-10T01:54:44.865Z,85.80
2017-11-10T01:55:50.991Z,85.57
2017-11-10T01:56:56.565Z,85.69
2017-11-10T01:58:02.309Z,85.68
2017-11-10T01:59:08.425Z,85.68
2017-11-10T02:00:13.426Z,85.31
2017-11-10T02:01:18.982Z,85.56
2017-11-10T02:02:26.570Z,85.82
2017-11-10T02:03:31.985Z,85.99
2017-11-10T02:04:38.136Z,85.94
2017-11-10T02:05:44.227Z,86.12
2017-11-10T02:06:50.347Z,86.55
2017-11-10T02:07:59.012Z,86.46
2017-11-10T02:09:04.225Z,86.36
2017-11-10T02:10:09.975Z,86.44
2017-11-10T02:11:19.214Z,86.20
2017-11-10T02:12:25.289Z,86.53
2017-11-10T02:13:31.192Z,86.66
2017-11-10T02:14:37.267Z,86.60
2017-11-10T02:15:42.821Z,86.04
2017-11-10T02:16:48.743Z,86.30
2017-11-10T02:17:54.623Z,86.45
2017-11-10T02:19:00.367Z,86.54
2017-11-10T02:20:05.756Z,86.51
2017-11-10T02:21:11.512Z,87.13
2017-11-10T02:22:17.278Z,87.34
2017-11-10T02:23:23.424Z,87.76
2017-11-10T02:24:28.631Z,88.30
2017-11-10T02:25:34.017Z,88.64
2017-11-10T02:26:39.481Z,89.31
2017-11-10T02:27:44.632Z,89.11
2017-11-10T02:28:50.390Z,89.18
2017-11-10T02:29:56.128Z,89.38
2017-11-10T02:31:01.967Z,89.91
2017-11-10T02:32:07.721Z,90.10
2017-11-10T02:33:13.119Z,90.84
2017-11-10T02:34:18.475Z,90.99
2017-11-10T02:35:23.864Z,91.36
2017-11-10T02:36:29.647Z,91.25
2017-11-10T02:37:35.093Z,91.50
2017-11-10T02:38:40.523Z,91.87
2017-11-10T02:39:45.738Z,91.46
2017-11-10T02:40:51.819Z,91.14
2017-11-10T02:41:57.948Z,90.93
2017-11-10T02:43:03.676Z,91.08
2017-11-10T02:44:09.813Z,90.92
2017-11-10T02:45:15.792Z,90.78
2017-11-10T02:46:21.582Z,90.68
2017-11-10T02:47:27.707Z,90.91
2017-11-10T02:48:33.260Z,90.82
2017-11-10T02:49:39.366Z,90.67
2017-11-10T02:50:48.106Z,90.48
2017-11-10T02:51:54.247Z,90.30
2017-11-10T02:53:00.327Z,90.25
2017-11-10T02:54:06.433Z,90.22
2017-11-10T02:55:12.168Z,89.87
2017-11-10T02:56:17.989Z,89.22
2017-11-10T02:57:23.710Z,89.06
2017-11-10T02:58:29.850Z,88.75
2017-11-10T02:59:35.969Z,88.62
2017-11-10T03:00:42.047Z,88.36
2017-11-10T03:01:48.200Z,88.37
2017-11-10T03:02:54.307Z,88.14
2017-11-10T03:04:00.431Z,87.60
2017-11-10T03:05:06.378Z,87.47
2017-11-10T03:06:12.469Z,86.79
2017-11-10T03:07:23.576Z,87.14
2017-11-10T03:08:29.119Z,87.33
2017-11-10T03:09:35.045Z,86.95
2017-11-10T03:10:41.394Z,87.16
2017-11-10T03:11:47.485Z,86.66
2017-11-10T03:12:53.069Z,86.45
2017-11-10T03:13:58.537Z,86.56
2017-11-10T03:15:03.722Z,86.79
2017-11-10T03:16:10.507Z,87.03
2017-11-10T03:17:16.476Z,86.76
2017-11-10T03:18:22.277Z,86.90
2017-11-10T03:19:28.375Z,86.83
2017-11-10T03:20:34.486Z,86.49
2017-11-10T03:21:40.590Z,85.76
2017-11-10T03:22:46.395Z,85.69
2017-11-10T03:23:52.110Z,85.85
2017-11-10T03:24:58.200Z,85.55
2017-11-10T03:26:04.292Z,85.40
2017-11-10T03:27:11.445Z,85.49
2017-11-10T03:28:18.054Z,86.09
2017-11-10T03:29:23.803Z,86.29
2017-11-10T03:30:29.579Z,86.25
2017-11-10T03:31:35.719Z,86.35
2017-11-10T03:32:41.464Z,85.63
2017-11-10T03:33:47.536Z,85.91
2017-11-10T03:34:53.655Z,85.90
2017-11-10T03:35:59.401Z,85.58
2017-11-10T03:37:05.221Z,85.85
2017-11-10T03:38:11.055Z,85.80
2017-11-10T03:39:16.785Z,85.72
2017-11-10T03:40:22.896Z,85.78
2017-11-10T03:41:29.015Z,85.45
2017-11-10T03:42:34.792Z,85.29
2017-11-10T03:43:40.923Z,85.01
2017-11-10T03:44:47.107Z,85.06
2017-11-10T03:45:52.518Z,84.83
2017-11-10T03:46:57.774Z,85.03
2017-11-10T03:48:03.674Z,84.92
2017-11-10T03:49:09.766Z,84.70
2017-11-10T03:50:15.918Z,84.67
2017-11-10T03:51:21.730Z,84.41
2017-11-10T03:52:27.857Z,84.46
2017-11-10T03:53:33.926Z,83.84
2017-11-10T03:54:40.038Z,83.82
2017-11-10T03:55:45.613Z,84.18
2017-11-10T03:56:51.741Z,83.76
2017-11-10T03:57:57.514Z,84.37
2017-11-10T03:59:03.623Z,84.39
2017-11-10T04:00:09.012Z,84.51
2017-11-10T04:01:14.559Z,84.85
2017-11-10T04:02:20.713Z,84.99
2017-11-10T04:03:26.799Z,84.96
2017-11-10T04:04:32.861Z,84.51
2017-11-10T04:05:38.929Z,84.42
2017-11-10T04:06:45.019Z,84.37
2017-11-10T04:07:51.135Z,84.29
2017-11-10T04:08:56.883Z,84.67
2017-11-10T04:10:02.989Z,84.87
2017-11-10T04:11:08.746Z,84.75
2017-11-10T04:12:14.678Z,84.45
2017-11-10T04:13:20.787Z,84.41
2017-11-10T04:14:27.300Z,84.34
2017-11-10T04:15:33.437Z,84.47
2017-11-10T04:16:43.505Z,84.72
2017-11-10T04:17:49.582Z,84.85
2017-11-10T04:18:55.720Z,84.86
2017-11-10T04:20:01.860Z,84.93
2017-11-10T04:21:08.227Z,84.76
2017-11-10T04:22:14.331Z,84.70
2017-11-10T04:23:20.114Z,84.71
2017-11-10T04:24:26.192Z,84.27
2017-11-10T04:25:31.923Z,84.59
2017-11-10T04:26:38.067Z,84.17
2017-11-10T04:27:44.151Z,84.71
2017-11-10T04:28:50.273Z,84.68
2017-11-10T04:29:56.023Z,84.99
2017-11-10T04:31:01.727Z,84.74
2017-11-10T04:32:07.831Z,84.83
2017-11-10T04:33:13.967Z,84.93
2017-11-10T04:34:20.100Z,84.90
2017-11-10T04:35:26.202Z,84.81
2017-11-10T04:36:32.107Z,84.61
2017-11-10T04:37:40.159Z,84.62
2017-11-10T04:38:46.214Z,84.71
2017-11-10T04:39:52.303Z,84.60
2017-11-10T04:40:58.364Z,85.05
2017-11-10T04:42:03.779Z,85.10
2017-11-10T04:43:09.948Z,85.12
2017-11-10T04:44:16.038Z,85.14
2017-11-10T04:45:22.243Z,85.46
2017-11-10T04:46:29.350Z,85.80
2017-11-10T04:47:35.477Z,85.96
2017-11-10T04:48:41.665Z,85.44
2017-11-10T04:49:47.771Z,85.36
2017-11-10T04:50:53.886Z,85.20
2017-11-10T04:51:59.814Z,85.27
2017-11-10T04:53:05.634Z,85.84
2017-11-10T04:54:12.230Z,85.57
2017-11-10T04:55:17.953Z,85.75
2017-11-10T04:56:23.734Z,85.52
2017-11-10T04:57:29.318Z,85.56
2017-11-10T04:58:35.432Z,85.49
2017-11-10T04:59:41.170Z,85.40
2017-11-10T05:00:47.283Z,85.46
2017-11-10T05:01:52.984Z,85.71
2017-11-10T05:02:58.926Z,85.67
2017-11-10T05:04:11.844Z,86.17
2017-11-10T05:05:17.972Z,86.16
2017-11-10T05:06:23.727Z,86.33
2017-11-10T05:07:29.790Z,86.26
2017-11-10T05:08:36.115Z,86.32
2017-11-10T05:09:42.433Z,86.00
2017-11-10T05:10:48.163Z,85.88
2017-11-10T05:11:54.367Z,85.76
2017-11-10T05:13:00.534Z,85.98
2017-11-10T05:14:06.406Z,85.74
2017-11-10T05:15:12.802Z,85.77
2017-11-10T05:16:19.785Z,85.98
2017-11-10T05:17:25.893Z,86.26
2017-11-10T05:18:31.662Z,86.40
2017-11-10T05:19:37.742Z,86.59
2017-11-10T05:20:43.839Z,86.67
2017-11-10T05:21:49.933Z,86.65
2017-11-10T05:22:56.079Z,86.96
2017-11-10T05:24:02.180Z,87.23
2017-11-10T05:25:07.901Z,87.24
2017-11-10T05:26:13.816Z,87.12
2017-11-10T05:27:21.124Z,87.28
2017-11-10T05:28:27.317Z,86.70
2017-11-10T05:29:33.382Z,86.90
2017-11-10T05:30:39.391Z,86.90
2017-11-10T05:31:45.637Z,87.20
2017-11-10T05:32:51.228Z,87.17
2017-11-10T05:33:57.204Z,87.08
2017-11-10T05:35:02.391Z,87.09
2017-11-10T05:36:07.753Z,87.38
2017-11-10T05:37:12.945Z,87.52
2017-11-10T05:38:18.187Z,87.67
2017-11-10T05:39:23.743Z,87.83
2017-11-10T05:40:29.341Z,87.87
2017-11-10T05:41:34.537Z,87.74
2017-11-10T05:42:40.473Z,87.87
2017-11-10T05:43:46.620Z,87.68
2017-11-10T05:44:52.615Z,87.19
2017-11-10T05:45:59.438Z,87.53
2017-11-10T05:47:04.912Z,87.37
2017-11-10T05:48:11.037Z,87.34
2017-11-10T05:49:17.124Z,87.69
2017-11-10T05:50:23.116Z,87.98
2017-11-10T05:51:28.908Z,88.18
2017-11-10T05:52:34.815Z,88.49
2017-11-10T05:53:40.787Z,88.74
2017-11-10T05:54:46.695Z,88.76
2017-11-10T05:55:52.308Z,88.81
2017-11-10T05:56:58.200Z,88.63
2017-11-10T05:58:04.142Z,88.96
2017-11-10T05:59:10.842Z,88.91
2017-11-10T06:00:16.991Z,88.78
2017-11-10T06:01:22.203Z,88.30
2017-11-10T06:02:28.448Z,88.33
2017-11-10T06:03:35.354Z,88.37
2017-11-10T06:04:42.082Z,88.00
2017-11-10T06:05:47.934Z,88.05
2017-11-10T06:06:53.363Z,88.00
2017-11-10T06:07:58.926Z,88.32
2017-11-10T06:09:04.841Z,88.49
2017-11-10T06:10:10.596Z,88.52
2017-11-10T06:11:19.514Z,88.90
2017-11-10T06:12:26.889Z,88.95
2017-11-10T06:13:34.178Z,88.93
2017-11-10T06:14:41.141Z,89.29
2017-11-10T06:15:47.893Z,89.58
2017-11-10T06:16:55.955Z,89.79
2017-11-10T06:18:02.950Z,90.21
2017-11-10T06:19:09.083Z,91.00
2017-11-10T06:20:15.383Z,91.38
2017-11-10T06:21:21.160Z,91.90
2017-11-10T06:22:27.268Z,92.21
2017-11-10T06:23:33.432Z,92.07
2017-11-10T06:24:39.577Z,92.38
2017-11-10T06:25:45.750Z,92.48
2017-11-10T06:26:51.886Z,92.29
2017-11-10T06:27:58.103Z,92.00
2017-11-10T06:29:04.234Z,91.66
2017-11-10T06:30:10.344Z,92.01
2017-11-10T06:31:16.982Z,92.34
2017-11-10T06:32:23.127Z,92.12
2017-11-10T06:33:29.232Z,92.15
2017-11-10T06:34:35.341Z,92.53
2017-11-10T06:35:41.424Z,92.51
2017-11-10T06:36:47.553Z,92.66
2017-11-10T06:37:53.261Z,92.21
2017-11-10T06:38:59.040Z,92.53
2017-11-10T06:40:04.408Z,92.84
2017-11-10T06:41:10.203Z,92.59
2017-11-10T06:42:16.193Z,92.62
2017-11-10T06:43:22.304Z,92.90
2017-11-10T06:44:28.430Z,93.62
2017-11-10T06:45:39.701Z,93.45
2017-11-10T06:46:45.790Z,93.66
2017-11-10T06:47:51.925Z,93.46
2017-11-10T06:48:58.073Z,93.41
2017-11-10T06:50:03.462Z,94.04
2017-11-10T06:51:09.567Z,94.35
2017-11-10T06:52:15.649Z,94.12
2017-11-10T06:53:21.801Z,93.84
2017-11-10T06:54:28.192Z,93.29
2017-11-10T06:55:35.271Z,93.41
2017-11-10T06:56:41.940Z,93.42
2017-11-10T06:57:51.484Z,93.58
2017-11-10T06:58:57.225Z,93.48
2017-11-10T07:00:03.389Z,93.86
2017-11-10T07:01:09.315Z,94.02
2017-11-10T07:02:16.143Z,93.77
2017-11-10T07:03:27.007Z,93.81
2017-11-10T07:04:33.241Z,93.72
2017-11-10T07:05:39.346Z,93.64
2017-11-10T07:06:45.525Z,93.96
2017-11-10T07:07:51.658Z,94.74
2017-11-10T07:08:57.827Z,94.68
2017-11-10T07:10:03.430Z,94.26
2017-11-10T07:11:09.586Z,94.02
2017-11-10T07:12:15.779Z,93.69
2017-11-10T07:13:21.888Z,93.88
2017-11-10T07:14:35.325Z,94.23
2017-11-10T07:15:41.294Z,93.85
2017-11-10T07:16:48.080Z,94.07
2017-11-10T07:17:54.203Z,93.97
2017-11-10T07:19:00.342Z,93.99
2017-11-10T07:20:06.316Z,94.15
2017-11-10T07:21:12.423Z,94.35
2017-11-10T07:22:18.572Z,94.32
2017-11-10T07:23:24.724Z,94.09
2017-11-10T07:24:30.806Z,94.21
2017-11-10T07:25:36.927Z,94.58
2017-11-10T07:26:43.024Z,94.31
2017-11-10T07:27:49.156Z,94.44
2017-11-10T07:28:55.291Z,94.18
2017-11-10T07:30:01.428Z,94.46
2017-11-10T07:31:07.561Z,94.79
2017-11-10T07:32:13.674Z,94.57
2017-11-10T07:33:19.889Z,94.42
2017-11-10T07:34:25.811Z,93.93
2017-11-10T07:35:31.980Z,94.10
2017-11-10T07:36:37.940Z,94.45
2017-11-10T07:37:44.062Z,94.03
2017-11-10T07:38:50.142Z,94.01
2017-11-10T07:39:56.300Z,94.07
2017-11-10T07:41:02.363Z,94.05
2017-11-10T07:42:08.490Z,93.82
2017-11-10T07:43:14.617Z,94.31
2017-11-10T07:44:20.758Z,94.66
2017-11-10T07:45:26.963Z,95.22
2017-11-10T07:46:33.074Z,95.20
2017-11-10T07:47:39.007Z,95.02
2017-11-10T07:48:45.165Z,95.03
2017-11-10T07:49:51.280Z,94.99
2017-11-10T07:50:57.453Z,95.26
2017-11-10T07:52:03.553Z,95.23
2017-11-10T07:53:09.667Z,95.39
2017-11-10T07:54:18.562Z,95.86
2017-11-10T07:55:27.530Z,95.73
2017-11-10T07:56:33.774Z,95.38
2017-11-10T07:57:39.794Z,95.45
2017-11-10T07:58:45.980Z,95.61
2017-11-10T07:59:51.927Z,95.68
2017-11-10T08:00:58.080Z,95.28
2017-11-10T08:02:03.711Z,95.22
2017-11-10T08:03:09.471Z,95.46
2017-11-10T08:04:15.595Z,95.93
2017-11-10T08:05:21.784Z,96.07
2017-11-10T08:06:27.915Z,96.02
2017-11-10T08:07:34.029Z,96.06
2017-11-10T08:08:40.154Z,95.94
2017-11-10T08:09:46.262Z,95.80
2017-11-10T08:10:52.412Z,95.88
2017-11-10T08:11:58.584Z,96.07
2017-11-10T08:13:04.736Z,96.67
2017-11-10T08:14:10.838Z,96.58
2017-11-10T08:15:16.942Z,96.65
2017-11-10T08:16:23.120Z,96.74
2017-11-10T08:17:29.250Z,96.80
2017-11-10T08:18:35.429Z,96.72
2017-11-10T08:19:41.549Z,96.54
2017-11-10T08:20:47.673Z,96.15
2017-11-10T08:21:53.826Z,96.05
2017-11-10T08:23:01.866Z,95.46
2017-11-10T08:24:07.980Z,95.61
2017-11-10T08:25:14.125Z,95.77
2017-11-10T08:26:20.704Z,95.90
2017-11-10T08:27:27.225Z,95.54
2017-11-10T08:28:33.878Z,95.40
2017-11-10T08:29:39.337Z,95.99
2017-11-10T08:30:45.542Z,95.50
2017-11-10T08:31:51.455Z,95.55
2017-11-10T08:32:57.631Z,95.72
2017-11-10T08:34:03.793Z,95.44
2017-11-10T08:35:09.926Z,94.89
2017-11-10T08:36:16.092Z,94.71
2017-11-10T08:37:22.301Z,94.73
2017-11-10T08:38:28.447Z,94.54
2017-11-10T08:39:34.524Z,94.91
2017-11-10T08:40:40.636Z,95.18
2017-11-10T08:41:46.745Z,95.41
2017-11-10T08:42:52.857Z,95.03
2017-11-10T08:43:58.963Z,94.89
2017-11-10T08:45:04.830Z,94.98
2017-11-10T08:46:10.675Z,95.11
2017-11-10T08:47:16.779Z,95.17
2017-11-10T08:48:23.432Z,94.83
2017-11-10T08:49:30.768Z,94.77
2017-11-10T08:50:38.275Z,94.80
2017-11-10T08:51:46.366Z,95.10
2017-11-10T08:52:53.657Z,94.75
2017-11-10T08:54:00.280Z,94.38
2017-11-10T08:55:07.232Z,94.53
2017-11-10T08:56:14.318Z,94.56
2017-11-10T08:57:21.279Z,94.05
2017-11-10T08:58:28.427Z,93.80
2017-11-10T08:59:35.281Z,94.08
2017-11-10T09:00:42.842Z,94.14
2017-11-10T09:01:50.026Z,94.19
2017-11-10T09:02:57.176Z,94.24
2017-11-10T09:04:04.263Z,93.64
2017-11-10T09:05:12.210Z,93.60
2017-11-10T09:06:19.080Z,93.67
2017-11-10T09:07:26.152Z,93.77
2017-11-10T09:08:33.255Z,93.90
2017-11-10T09:09:40.138Z,94.07
2017-11-10T09:10:47.435Z,93.88
2017-11-10T09:11:53.905Z,93.37
2017-11-10T09:13:00.849Z,93.31
2017-11-10T09:14:07.743Z,93.18
2017-11-10T09:15:14.625Z,93.26
2017-11-10T09:16:21.628Z,93.48
2017-11-10T09:17:27.573Z,93.13
2017-11-10T09:18:33.542Z,93.19
2017-11-10T09:19:39.628Z,93.16
2017-11-10T09:20:45.554Z,93.11
2017-11-10T09:21:51.479Z,93.14
2017-11-10T09:22:57.380Z,92.73
2017-11-10T09:24:03.324Z,92.59
2017-11-10T09:25:09.252Z,92.49
2017-11-10T09:26:14.492Z,92.40
2017-11-10T09:27:31.778Z,92.51
2017-11-10T09:28:42.216Z,92.69
2017-11-10T09:29:49.422Z,92.37
2017-11-10T09:31:16.939Z,92.36
2017-11-10T09:43:26.788Z,91.71
2017-11-10T09:45:04.655Z,91.84
2017-11-10T09:46:38.555Z,92.12
2017-11-10T09:48:00.216Z,92.39
2017-11-10T10:10:24.087Z,90.48
2017-11-10T10:11:35.759Z,89.77
2017-11-10T10:12:47.398Z,89.19
2017-11-10T10:14:14.207Z,89.00
2017-11-10T10:15:40.649Z,88.85
2017-11-10T10:17:07.301Z,88.15
2017-11-10T10:29:12.047Z,89.07
2017-11-10T10:30:18.257Z,89.20
2017-11-10T10:31:24.392Z,88.96
2017-11-10T10:32:30.527Z,88.60
2017-11-10T10:33:36.619Z,88.46
2017-11-10T10:34:45.254Z,88.37
2017-11-10T10:35:50.963Z,88.63
2017-11-10T10:36:56.909Z,88.54
2017-11-10T10:38:03.031Z,88.39
2017-11-10T10:39:08.580Z,88.18
2017-11-10T10:40:14.707Z,88.18
2017-11-10T10:41:20.098Z,88.45
2017-11-10T10:42:26.206Z,88.23
2017-11-10T10:43:31.960Z,88.23
2017-11-10T10:44:37.685Z,87.95
2017-11-10T10:45:43.449Z,87.71
2017-11-10T10:46:49.617Z,87.45
2017-11-10T10:48:00.989Z,87.94
2017-11-10T10:49:11.087Z,88.37
2017-11-10T10:50:16.828Z,88.72
2017-11-10T10:51:22.920Z,88.36
2017-11-10T10:52:28.510Z,88.46
2017-11-10T10:53:34.669Z,88.00
2017-11-10T10:54:40.755Z,87.99
2017-11-10T10:55:46.849Z,88.02
2017-11-10T10:56:52.945Z,87.78
2017-11-10T10:57:59.040Z,87.68
2017-11-10T10:59:05.156Z,87.77
2017-11-10T11:00:10.905Z,88.00
2017-11-10T11:01:16.811Z,87.92
2017-11-10T11:02:22.939Z,87.66
2017-11-10T11:03:29.023Z,87.98
2017-11-10T11:04:35.103Z,87.71
2017-11-10T11:05:40.825Z,87.59
2017-11-10T11:06:46.909Z,87.53
2017-11-10T11:07:52.808Z,86.93
2017-11-10T11:08:58.545Z,86.50
2017-11-10T11:10:03.907Z,86.90
2017-11-10T11:11:10.008Z,86.75
2017-11-10T11:12:16.136Z,86.39
2017-11-10T11:13:22.222Z,86.72
2017-11-10T11:14:28.303Z,86.62
2017-11-10T11:15:34.355Z,86.54
2017-11-10T11:16:40.235Z,86.05
2017-11-10T11:17:46.321Z,85.17
2017-11-10T11:18:52.424Z,85.73
2017-11-10T11:19:58.520Z,86.16
2017-11-10T11:21:04.226Z,86.34
2017-11-10T11:22:09.632Z,86.17
2017-11-10T11:23:15.752Z,85.83
2017-11-10T11:24:20.906Z,85.93
2017-11-10T11:25:26.989Z,86.62
2017-11-10T11:26:33.124Z,86.90
2017-11-10T11:27:39.849Z,86.81
2017-11-10T11:28:46.232Z,86.62
2017-11-10T11:29:52.294Z,86.35
2017-11-10T11:31:03.545Z,86.55
2017-11-10T11:32:08.933Z,86.13
2017-11-10T11:33:20.099Z,86.21
2017-11-10T11:34:26.201Z,86.24
2017-11-10T11:35:32.299Z,86.30
2017-11-10T11:36:38.406Z,86.09
2017-11-10T11:37:45.606Z,85.99
2017-11-10T11:38:51.718Z,85.70
2017-11-10T11:39:57.828Z,85.44
2017-11-10T11:41:03.916Z,85.12
2017-11-10T11:42:09.615Z,85.12
2017-11-10T11:43:15.728Z,84.87
2017-11-10T11:44:21.818Z,85.03
2017-11-10T11:45:27.917Z,85.39
2017-11-10T11:46:33.977Z,85.43
2017-11-10T11:47:40.069Z,85.58
2017-11-10T11:48:45.783Z,85.30
2017-11-10T11:49:51.895Z,85.68
2017-11-10T11:50:57.586Z,85.76
2017-11-10T11:52:03.100Z,85.79
2017-11-10T11:53:09.212Z,85.57
2017-11-10T11:54:16.518Z,85.53
2017-11-10T11:55:22.614Z,85.25
2017-11-10T11:56:28.076Z,85.07
2017-11-10T11:57:34.200Z,85.62
2017-11-10T11:58:40.324Z,85.50
2017-11-10T11:59:45.647Z,85.99
2017-11-10T12:00:50.837Z,86.03
2017-11-10T12:01:56.911Z,86.19
2017-11-10T12:03:02.652Z,86.36
2017-11-10T12:04:08.717Z,86.24
2017-11-10T12:05:14.785Z,85.84
2017-11-10T12:06:20.553Z,85.56
2017-11-10T12:07:26.516Z,85.33
2017-11-10T12:08:32.613Z,85.12
2017-11-10T12:09:39.926Z,85.35
2017-11-10T12:10:46.016Z,85.84
2017-11-10T12:11:51.746Z,84.89
2017-11-10T12:12:57.820Z,85.35
2017-11-10T12:14:03.328Z,85.57
2017-11-10T12:15:09.422Z,85.30
2017-11-10T12:16:15.549Z,85.51
2017-11-10T12:17:21.665Z,85.38
2017-11-10T12:18:27.581Z,85.27
2017-11-10T12:19:33.682Z,85.74
2017-11-10T12:20:38.868Z,86.80
2017-11-10T12:21:44.360Z,86.66
2017-11-10T12:22:50.057Z,87.47
2017-11-10T12:23:55.228Z,87.80
2017-11-10T12:25:00.412Z,88.26
2017-11-10T12:26:05.924Z,88.40
2017-11-10T12:27:11.368Z,88.58
2017-11-10T12:28:16.929Z,88.69
2017-11-10T12:29:22.668Z,88.74
2017-11-10T12:30:28.040Z,88.77
2017-11-10T12:31:34.165Z,88.43
2017-11-10T12:32:40.309Z,88.19
2017-11-10T12:33:46.515Z,88.55
2017-11-10T12:34:51.741Z,88.44
2017-11-10T12:36:02.217Z,88.54
2017-11-10T12:37:07.961Z,88.75
2017-11-10T12:38:13.742Z,88.67
2017-11-10T12:39:19.462Z,88.78
2017-11-10T12:40:25.212Z,89.43
2017-11-10T12:41:31.320Z,89.44
2017-11-10T12:42:37.449Z,89.05
2017-11-10T12:43:43.560Z,89.16
2017-11-10T12:44:49.673Z,89.35
2017-11-10T12:45:55.793Z,89.41
2017-11-10T12:47:01.560Z,90.21
2017-11-10T12:48:07.718Z,90.75
2017-11-10T12:49:13.902Z,90.67
2017-11-10T12:50:19.669Z,90.37
2017-11-10T12:51:25.460Z,90.01
2017-11-10T12:52:31.227Z,89.97
2017-11-10T12:53:37.410Z,90.25
2017-11-10T12:54:42.856Z,90.01
2017-11-10T12:55:48.994Z,89.86
2017-11-10T12:56:54.385Z,89.92
2017-11-10T12:58:00.503Z,89.93
2017-11-10T12:59:06.705Z,89.96
2017-11-10T13:00:12.734Z,90.16
2017-11-10T13:01:18.698Z,90.27
2017-11-10T13:02:24.811Z,90.38
2017-11-10T13:03:30.949Z,90.23
2017-11-10T13:04:36.751Z,90.08
2017-11-10T13:05:42.530Z,89.97
2017-11-10T13:06:48.699Z,90.55
2017-11-10T13:07:54.528Z,90.71
2017-11-10T13:08:59.970Z,90.50
2017-11-10T13:10:05.398Z,90.40
2017-11-10T13:11:13.542Z,90.38
2017-11-10T13:12:19.684Z,90.16
2017-11-10T13:13:25.649Z,89.87
2017-11-10T13:14:31.787Z,89.93
2017-11-10T13:15:37.928Z,90.15
2017-11-10T13:16:43.347Z,90.06
2017-11-10T13:17:49.503Z,90.29
2017-11-10T13:18:55.461Z,89.97
2017-11-10T13:20:00.898Z,90.31
2017-11-10T13:21:07.029Z,90.97
2017-11-10T13:22:12.795Z,91.09
2017-11-10T13:23:19.265Z,91.36
2017-11-10T13:24:25.666Z,91.60
2017-11-10T13:25:31.812Z,91.56
2017-11-10T13:26:37.996Z,91.94
2017-11-10T13:27:44.340Z,92.21
2017-11-10T13:28:50.551Z,91.68
2017-11-10T13:29:56.713Z,91.69
2017-11-10T13:31:05.750Z,91.89
2017-11-10T13:32:12.105Z,91.77
2017-11-10T13:33:18.271Z,91.88
2017-11-10T13:34:24.383Z,91.67
2017-11-10T13:35:30.543Z,92.33
2017-11-10T13:36:36.688Z,92.68
2017-11-10T13:37:42.847Z,92.88
2017-11-10T13:38:48.967Z,92.41
2017-11-10T13:39:55.104Z,93.05
2017-11-10T13:41:01.276Z,93.20
2017-11-10T13:42:07.426Z,93.33
2017-11-10T13:43:13.546Z,93.43
2017-11-10T13:44:20.655Z,93.42
2017-11-10T13:45:26.810Z,93.74
2017-11-10T13:46:32.971Z,93.75
2017-11-10T13:47:39.157Z,93.78
2017-11-10T13:48:46.003Z,93.89
2017-11-10T13:49:53.423Z,93.58
2017-11-10T13:51:00.729Z,93.14
2017-11-10T13:52:06.971Z,93.12
2017-11-10T13:53:13.130Z,93.04
2017-11-10T13:54:20.325Z,93.31
2017-11-10T13:55:27.821Z,93.26
2017-11-10T13:56:38.934Z,92.97
2017-11-10T13:57:45.430Z,93.45
2017-11-10T13:58:53.005Z,93.10
2017-11-10T14:00:00.840Z,92.87
2017-11-10T14:01:07.001Z,93.38
2017-11-10T14:02:14.320Z,93.75
2017-11-10T14:03:20.541Z,93.68
2017-11-10T14:04:26.755Z,93.83
2017-11-10T14:05:32.961Z,93.72
2017-11-10T14:06:39.115Z,93.70
2017-11-10T14:07:45.020Z,93.28
2017-11-10T14:08:51.174Z,92.79
2017-11-10T14:09:57.340Z,92.79
2017-11-10T14:11:03.467Z,93.19
2017-11-10T14:12:10.942Z,92.85
2017-11-10T14:13:17.542Z,93.01
2017-11-10T14:14:23.499Z,92.75
2017-11-10T14:15:29.686Z,92.75
2017-11-10T14:16:35.884Z,92.50
2017-11-10T14:17:45.927Z,92.35
2017-11-10T14:18:53.015Z,92.86
2017-11-10T14:19:59.137Z,92.94
2017-11-10T14:21:05.083Z,93.17
2017-11-10T14:22:11.210Z,93.21
2017-11-10T14:23:17.189Z,92.87
2017-11-10T14:24:23.295Z,92.83
2017-11-10T14:25:29.461Z,92.85
2017-11-10T14:26:35.634Z,92.91
2017-11-10T14:27:41.812Z,92.84
2017-11-10T14:28:47.964Z,92.52
2017-11-10T14:29:54.150Z,92.70
2017-11-10T14:31:00.313Z,92.75
2017-11-10T14:32:07.084Z,92.54
2017-11-10T14:33:13.191Z,92.48
2017-11-10T14:34:19.318Z,92.07
2017-11-10T14:35:25.485Z,92.10
2017-11-10T14:36:31.983Z,91.91
2017-11-10T14:37:38.113Z,92.05
2017-11-10T14:38:44.271Z,91.92
2017-11-10T14:39:50.420Z,91.96
2017-11-10T14:40:56.586Z,92.23
2017-11-10T14:42:02.756Z,92.12
2017-11-10T14:43:08.887Z,92.11
2017-11-10T14:44:15.047Z,92.05
2017-11-10T14:45:21.184Z,91.82
2017-11-10T14:46:30.271Z,91.47
2017-11-10T14:47:37.232Z,91.57
2017-11-10T14:48:43.376Z,91.64
2017-11-10T14:49:49.508Z,91.78
2017-11-10T14:50:55.669Z,91.70
2017-11-10T14:52:01.815Z,91.21
2017-11-10T14:53:07.927Z,91.02
2017-11-10T14:54:14.054Z,90.99
2017-11-10T14:55:20.209Z,90.81
2017-11-10T14:56:26.352Z,90.83
2017-11-10T14:57:32.517Z,90.91
2017-11-10T14:58:38.643Z,90.77
2017-11-10T14:59:44.759Z,90.91